sensor_id;sensor_type;location;lat;lon;timestamp;P1;durP1;ratioP1;P2;durP2;ratioP2
35326;SDS011;21436;52.348;20.928;2023-04-06T00:02:11;14.10;;;7.15;;
35326;SDS011;21436;52.348;20.928;2023-04-06T00:04:40;17.67;;;7.00;;
35326;SDS011;21436;52.348;20.928;2023-04-06T00:07:08;14.63;;;7.43;;
35326;SDS011;21436;52.348;20.928;2023-04-06T00:09:36;17.65;;;7.47;;
35326;SDS011;21436;52.348;20.928;2023-04-06T00:12:05;23.48;;;8.57;;
35326;SDS011;21436;52.348;20.928;2023-04-06T00:14:33;13.02;;;6.82;;
35326;SDS011;21436;52.348;20.928;2023-04-06T00:17:02;17.20;;;6.70;;
35326;SDS011;21436;52.348;20.928;2023-04-06T00:19:30;13.05;;;5.97;;
35326;SDS011;21436;52.348;20.928;2023-04-06T00:21:58;15.25;;;7.00;;
35326;SDS011;21436;52.348;20.928;2023-04-06T00:24:26;13.15;;;7.10;;
35326;SDS011;21436;52.348;20.928;2023-04-06T00:26:56;15.07;;;6.97;;
35326;SDS011;21436;52.348;20.928;2023-04-06T00:29:24;18.08;;;7.03;;
35326;SDS011;21436;52.348;20.928;2023-04-06T00:31:52;15.40;;;7.57;;
35326;SDS011;21436;52.348;20.928;2023-04-06T00:34:20;19.85;;;7.93;;
35326;SDS011;21436;52.348;20.928;2023-04-06T00:36:48;19.63;;;8.90;;
35326;SDS011;21436;52.348;20.928;2023-04-06T00:39:16;12.30;;;6.90;;
35326;SDS011;21436;52.348;20.928;2023-04-06T00:41:49;22.25;;;10.23;;
35326;SDS011;21436;52.348;20.928;2023-04-06T00:44:19;23.48;;;10.35;;
35326;SDS011;21436;52.348;20.928;2023-04-06T00:46:47;22.33;;;10.15;;
35326;SDS011;21436;52.348;20.928;2023-04-06T00:49:16;25.80;;;10.30;;
35326;SDS011;21436;52.348;20.928;2023-04-06T00:51:45;21.92;;;9.90;;
35326;SDS011;21436;52.348;20.928;2023-04-06T00:54:14;23.63;;;10.73;;
35326;SDS011;21436;52.348;20.928;2023-04-06T00:56:43;21.02;;;9.45;;
35326;SDS011;21436;52.348;20.928;2023-04-06T00:59:11;22.77;;;10.05;;
35326;SDS011;21436;52.348;20.928;2023-04-06T01:01:40;19.42;;;9.30;;
35326;SDS011;21436;52.348;20.928;2023-04-06T01:06:53;24.17;;;9.05;;
35326;SDS011;21436;52.348;20.928;2023-04-06T01:09:28;22.75;;;9.48;;
35326;SDS011;21436;52.348;20.928;2023-04-06T01:12:03;20.48;;;9.50;;
35326;SDS011;21436;52.348;20.928;2023-04-06T01:14:33;22.10;;;9.80;;
35326;SDS011;21436;52.348;20.928;2023-04-06T01:17:02;19.77;;;9.50;;
35326;SDS011;21436;52.348;20.928;2023-04-06T01:19:33;24.13;;;9.68;;
35326;SDS011;21436;52.348;20.928;2023-04-06T01:22:01;20.88;;;9.88;;
35326;SDS011;21436;52.348;20.928;2023-04-06T01:24:42;21.75;;;9.38;;
35326;SDS011;21436;52.348;20.928;2023-04-06T01:27:15;24.05;;;10.00;;
35326;SDS011;21436;52.348;20.928;2023-04-06T01:30:11;25.08;;;10.70;;
35326;SDS011;21436;52.348;20.928;2023-04-06T01:32:58;22.20;;;9.65;;
35326;SDS011;21436;52.348;20.928;2023-04-06T01:35:46;20.70;;;9.95;;
35326;SDS011;21436;52.348;20.928;2023-04-06T01:38:18;24.45;;;10.15;;
35326;SDS011;21436;52.348;20.928;2023-04-06T01:40:47;23.15;;;9.85;;
35326;SDS011;21436;52.348;20.928;2023-04-06T01:43:19;19.98;;;9.98;;
35326;SDS011;21436;52.348;20.928;2023-04-06T01:45:59;18.92;;;9.85;;
35326;SDS011;21436;52.348;20.928;2023-04-06T01:48:33;21.80;;;9.80;;
35326;SDS011;21436;52.348;20.928;2023-04-06T01:51:09;22.00;;;9.60;;
35326;SDS011;21436;52.348;20.928;2023-04-06T01:53:46;20.65;;;9.48;;
35326;SDS011;21436;52.348;20.928;2023-04-06T01:56:18;27.40;;;10.82;;
35326;SDS011;21436;52.348;20.928;2023-04-06T01:59:06;19.35;;;8.50;;
35326;SDS011;21436;52.348;20.928;2023-04-06T02:01:39;20.48;;;9.07;;
35326;SDS011;21436;52.348;20.928;2023-04-06T02:04:08;20.48;;;8.52;;
35326;SDS011;21436;52.348;20.928;2023-04-06T02:06:36;22.92;;;9.32;;
35326;SDS011;21436;52.348;20.928;2023-04-06T02:09:07;22.05;;;8.93;;
35326;SDS011;21436;52.348;20.928;2023-04-06T02:11:35;17.45;;;8.07;;
35326;SDS011;21436;52.348;20.928;2023-04-06T02:14:04;16.00;;;8.50;;
35326;SDS011;21436;52.348;20.928;2023-04-06T02:16:37;21.23;;;8.93;;
35326;SDS011;21436;52.348;20.928;2023-04-06T02:19:05;17.58;;;8.40;;
35326;SDS011;21436;52.348;20.928;2023-04-06T02:21:34;18.95;;;8.13;;
35326;SDS011;21436;52.348;20.928;2023-04-06T02:24:02;17.30;;;8.07;;
35326;SDS011;21436;52.348;20.928;2023-04-06T02:26:31;14.82;;;8.13;;
35326;SDS011;21436;52.348;20.928;2023-04-06T02:28:59;17.83;;;8.02;;
35326;SDS011;21436;52.348;20.928;2023-04-06T02:31:28;25.27;;;9.15;;
35326;SDS011;21436;52.348;20.928;2023-04-06T02:33:57;18.38;;;9.43;;
35326;SDS011;21436;52.348;20.928;2023-04-06T02:36:28;20.02;;;9.20;;
35326;SDS011;21436;52.348;20.928;2023-04-06T02:38:57;18.17;;;8.30;;
35326;SDS011;21436;52.348;20.928;2023-04-06T02:41:25;23.80;;;8.82;;
35326;SDS011;21436;52.348;20.928;2023-04-06T02:43:56;19.33;;;8.98;;
35326;SDS011;21436;52.348;20.928;2023-04-06T02:46:34;18.33;;;8.85;;
35326;SDS011;21436;52.348;20.928;2023-04-06T02:49:03;18.75;;;9.32;;
35326;SDS011;21436;52.348;20.928;2023-04-06T02:51:33;20.92;;;9.90;;
35326;SDS011;21436;52.348;20.928;2023-04-06T02:54:20;20.30;;;9.70;;
35326;SDS011;21436;52.348;20.928;2023-04-06T02:56:48;21.88;;;9.23;;
35326;SDS011;21436;52.348;20.928;2023-04-06T02:59:18;23.45;;;10.25;;
35326;SDS011;21436;52.348;20.928;2023-04-06T03:01:56;20.38;;;10.35;;
35326;SDS011;21436;52.348;20.928;2023-04-06T03:04:25;18.10;;;9.73;;
35326;SDS011;21436;52.348;20.928;2023-04-06T03:06:55;24.90;;;10.35;;
35326;SDS011;21436;52.348;20.928;2023-04-06T03:09:36;20.73;;;9.82;;
35326;SDS011;21436;52.348;20.928;2023-04-06T03:12:04;23.23;;;10.23;;
35326;SDS011;21436;52.348;20.928;2023-04-06T03:14:48;24.98;;;10.30;;
35326;SDS011;21436;52.348;20.928;2023-04-06T03:17:15;28.77;;;12.07;;
35326;SDS011;21436;52.348;20.928;2023-04-06T03:19:44;26.27;;;11.02;;
35326;SDS011;21436;52.348;20.928;2023-04-06T03:22:12;26.58;;;11.55;;
35326;SDS011;21436;52.348;20.928;2023-04-06T03:24:41;26.38;;;12.00;;
35326;SDS011;21436;52.348;20.928;2023-04-06T03:27:09;28.65;;;11.50;;
35326;SDS011;21436;52.348;20.928;2023-04-06T03:29:37;28.80;;;11.45;;
35326;SDS011;21436;52.348;20.928;2023-04-06T03:32:07;26.70;;;11.43;;
35326;SDS011;21436;52.348;20.928;2023-04-06T03:34:40;25.70;;;12.18;;
35326;SDS011;21436;52.348;20.928;2023-04-06T03:37:08;24.85;;;11.80;;
35326;SDS011;21436;52.348;20.928;2023-04-06T03:39:44;24.33;;;11.25;;
35326;SDS011;21436;52.348;20.928;2023-04-06T03:42:17;27.67;;;11.27;;
35326;SDS011;21436;52.348;20.928;2023-04-06T03:44:51;25.48;;;11.55;;
35326;SDS011;21436;52.348;20.928;2023-04-06T03:47:19;28.95;;;11.50;;
35326;SDS011;21436;52.348;20.928;2023-04-06T03:49:48;26.02;;;11.90;;
35326;SDS011;21436;52.348;20.928;2023-04-06T03:52:16;27.08;;;11.40;;
35326;SDS011;21436;52.348;20.928;2023-04-06T03:54:44;28.27;;;12.10;;
35326;SDS011;21436;52.348;20.928;2023-04-06T03:57:12;23.80;;;11.77;;
35326;SDS011;21436;52.348;20.928;2023-04-06T03:59:40;28.25;;;12.05;;
35326;SDS011;21436;52.348;20.928;2023-04-06T04:02:08;26.60;;;11.82;;
35326;SDS011;21436;52.348;20.928;2023-04-06T04:04:37;24.80;;;11.93;;
35326;SDS011;21436;52.348;20.928;2023-04-06T04:07:05;27.92;;;12.55;;
35326;SDS011;21436;52.348;20.928;2023-04-06T04:09:33;22.90;;;12.02;;
35326;SDS011;21436;52.348;20.928;2023-04-06T04:12:01;23.52;;;11.75;;
35326;SDS011;21436;52.348;20.928;2023-04-06T04:14:31;25.70;;;11.70;;
35326;SDS011;21436;52.348;20.928;2023-04-06T04:17:00;23.85;;;10.10;;
35326;SDS011;21436;52.348;20.928;2023-04-06T04:19:29;23.77;;;10.32;;
35326;SDS011;21436;52.348;20.928;2023-04-06T04:21:57;27.48;;;10.45;;
35326;SDS011;21436;52.348;20.928;2023-04-06T04:24:31;21.25;;;10.05;;
35326;SDS011;21436;52.348;20.928;2023-04-06T04:27:00;23.63;;;9.63;;
35326;SDS011;21436;52.348;20.928;2023-04-06T04:29:31;22.30;;;9.70;;
35326;SDS011;21436;52.348;20.928;2023-04-06T04:35:18;21.85;;;10.73;;
35326;SDS011;21436;52.348;20.928;2023-04-06T04:37:47;23.60;;;9.95;;
35326;SDS011;21436;52.348;20.928;2023-04-06T04:40:15;20.60;;;10.30;;
35326;SDS011;21436;52.348;20.928;2023-04-06T04:42:49;23.40;;;10.60;;
35326;SDS011;21436;52.348;20.928;2023-04-06T04:45:28;22.25;;;9.65;;
35326;SDS011;21436;52.348;20.928;2023-04-06T04:48:00;15.95;;;6.93;;
35326;SDS011;21436;52.348;20.928;2023-04-06T04:50:37;24.75;;;9.70;;
35326;SDS011;21436;52.348;20.928;2023-04-06T04:53:05;20.63;;;9.07;;
35326;SDS011;21436;52.348;20.928;2023-04-06T04:55:34;20.00;;;8.77;;
35326;SDS011;21436;52.348;20.928;2023-04-06T04:58:02;19.90;;;9.43;;
35326;SDS011;21436;52.348;20.928;2023-04-06T05:00:52;17.20;;;8.45;;
35326;SDS011;21436;52.348;20.928;2023-04-06T05:03:21;22.80;;;8.50;;
35326;SDS011;21436;52.348;20.928;2023-04-06T05:05:58;21.33;;;9.40;;
35326;SDS011;21436;52.348;20.928;2023-04-06T05:08:30;18.52;;;8.82;;
35326;SDS011;21436;52.348;20.928;2023-04-06T05:11:00;17.05;;;7.65;;
35326;SDS011;21436;52.348;20.928;2023-04-06T05:13:32;24.75;;;8.02;;
35326;SDS011;21436;52.348;20.928;2023-04-06T05:16:06;16.13;;;7.68;;
35326;SDS011;21436;52.348;20.928;2023-04-06T05:18:34;17.75;;;8.25;;
35326;SDS011;21436;52.348;20.928;2023-04-06T05:21:06;19.05;;;7.90;;
35326;SDS011;21436;52.348;20.928;2023-04-06T05:24:00;17.85;;;8.10;;
35326;SDS011;21436;52.348;20.928;2023-04-06T05:26:32;18.42;;;7.85;;
35326;SDS011;21436;52.348;20.928;2023-04-06T05:29:06;18.65;;;7.20;;
35326;SDS011;21436;52.348;20.928;2023-04-06T05:31:37;18.98;;;8.07;;
35326;SDS011;21436;52.348;20.928;2023-04-06T05:34:05;19.67;;;8.23;;
35326;SDS011;21436;52.348;20.928;2023-04-06T05:36:36;16.88;;;7.28;;
35326;SDS011;21436;52.348;20.928;2023-04-06T05:39:13;15.00;;;7.28;;
35326;SDS011;21436;52.348;20.928;2023-04-06T05:41:49;17.00;;;7.38;;
35326;SDS011;21436;52.348;20.928;2023-04-06T05:44:27;21.90;;;8.52;;
35326;SDS011;21436;52.348;20.928;2023-04-06T05:47:04;15.88;;;7.00;;
35326;SDS011;21436;52.348;20.928;2023-04-06T05:49:37;15.23;;;6.80;;
35326;SDS011;21436;52.348;20.928;2023-04-06T05:52:12;17.77;;;7.65;;
35326;SDS011;21436;52.348;20.928;2023-04-06T05:54:44;16.15;;;6.65;;
35326;SDS011;21436;52.348;20.928;2023-04-06T05:57:13;15.23;;;6.13;;
35326;SDS011;21436;52.348;20.928;2023-04-06T05:59:42;12.55;;;6.57;;
35326;SDS011;21436;52.348;20.928;2023-04-06T06:02:12;12.60;;;6.13;;
35326;SDS011;21436;52.348;20.928;2023-04-06T06:04:45;13.40;;;6.72;;
35326;SDS011;21436;52.348;20.928;2023-04-06T06:07:16;12.57;;;5.93;;
35326;SDS011;21436;52.348;20.928;2023-04-06T06:09:58;10.00;;;5.72;;
35326;SDS011;21436;52.348;20.928;2023-04-06T06:12:31;14.13;;;5.65;;
35326;SDS011;21436;52.348;20.928;2023-04-06T06:15:00;18.05;;;6.57;;
35326;SDS011;21436;52.348;20.928;2023-04-06T06:17:31;14.52;;;5.25;;
35326;SDS011;21436;52.348;20.928;2023-04-06T06:20:00;10.68;;;5.40;;
35326;SDS011;21436;52.348;20.928;2023-04-06T06:22:29;8.80;;;4.00;;
35326;SDS011;21436;52.348;20.928;2023-04-06T06:24:57;13.98;;;5.93;;
35326;SDS011;21436;52.348;20.928;2023-04-06T06:27:26;12.90;;;5.45;;
35326;SDS011;21436;52.348;20.928;2023-04-06T06:29:54;9.88;;;4.50;;
35326;SDS011;21436;52.348;20.928;2023-04-06T06:32:25;11.55;;;5.20;;
35326;SDS011;21436;52.348;20.928;2023-04-06T06:34:54;11.40;;;5.30;;
35326;SDS011;21436;52.348;20.928;2023-04-06T06:37:22;11.45;;;5.28;;
35326;SDS011;21436;52.348;20.928;2023-04-06T06:39:51;9.90;;;5.22;;
35326;SDS011;21436;52.348;20.928;2023-04-06T06:42:21;14.70;;;5.57;;
35326;SDS011;21436;52.348;20.928;2023-04-06T06:45:18;8.93;;;4.20;;
35326;SDS011;21436;52.348;20.928;2023-04-06T06:47:48;12.15;;;4.65;;
35326;SDS011;21436;52.348;20.928;2023-04-06T06:50:18;10.77;;;5.88;;
35326;SDS011;21436;52.348;20.928;2023-04-06T06:52:46;12.40;;;5.18;;
35326;SDS011;21436;52.348;20.928;2023-04-06T06:55:14;11.02;;;3.80;;
35326;SDS011;21436;52.348;20.928;2023-04-06T06:57:43;9.85;;;4.32;;
35326;SDS011;21436;52.348;20.928;2023-04-06T07:00:14;8.27;;;4.32;;
35326;SDS011;21436;52.348;20.928;2023-04-06T07:02:46;10.40;;;3.63;;
35326;SDS011;21436;52.348;20.928;2023-04-06T07:05:15;7.60;;;3.78;;
35326;SDS011;21436;52.348;20.928;2023-04-06T07:07:50;8.02;;;4.03;;
35326;SDS011;21436;52.348;20.928;2023-04-06T07:10:18;8.30;;;3.80;;
35326;SDS011;21436;52.348;20.928;2023-04-06T07:12:47;10.27;;;4.05;;
35326;SDS011;21436;52.348;20.928;2023-04-06T07:15:16;7.53;;;4.03;;
35326;SDS011;21436;52.348;20.928;2023-04-06T07:17:45;9.30;;;3.28;;
35326;SDS011;21436;52.348;20.928;2023-04-06T07:20:13;7.00;;;3.13;;
35326;SDS011;21436;52.348;20.928;2023-04-06T07:22:42;10.07;;;4.32;;
35326;SDS011;21436;52.348;20.928;2023-04-06T07:25:12;7.43;;;3.88;;
35326;SDS011;21436;52.348;20.928;2023-04-06T07:27:41;8.55;;;3.90;;
35326;SDS011;21436;52.348;20.928;2023-04-06T07:30:10;9.10;;;4.50;;
35326;SDS011;21436;52.348;20.928;2023-04-06T07:32:39;5.07;;;2.60;;
35326;SDS011;21436;52.348;20.928;2023-04-06T07:35:08;9.13;;;4.13;;
35326;SDS011;21436;52.348;20.928;2023-04-06T07:37:36;7.10;;;3.50;;
35326;SDS011;21436;52.348;20.928;2023-04-06T07:40:05;5.43;;;2.78;;
35326;SDS011;21436;52.348;20.928;2023-04-06T07:42:34;6.93;;;3.78;;
35326;SDS011;21436;52.348;20.928;2023-04-06T07:45:05;8.48;;;3.05;;
35326;SDS011;21436;52.348;20.928;2023-04-06T07:47:34;6.47;;;2.97;;
35326;SDS011;21436;52.348;20.928;2023-04-06T07:50:03;6.45;;;3.30;;
35326;SDS011;21436;52.348;20.928;2023-04-06T07:52:32;7.38;;;3.40;;
35326;SDS011;21436;52.348;20.928;2023-04-06T07:55:03;8.48;;;3.28;;
35326;SDS011;21436;52.348;20.928;2023-04-06T07:57:31;5.05;;;2.88;;
35326;SDS011;21436;52.348;20.928;2023-04-06T07:59:59;9.98;;;3.40;;
35326;SDS011;21436;52.348;20.928;2023-04-06T08:02:38;6.32;;;3.40;;
35326;SDS011;21436;52.348;20.928;2023-04-06T08:05:07;7.38;;;3.42;;
35326;SDS011;21436;52.348;20.928;2023-04-06T08:07:36;6.10;;;2.97;;
35326;SDS011;21436;52.348;20.928;2023-04-06T08:10:04;6.53;;;3.38;;
35326;SDS011;21436;52.348;20.928;2023-04-06T08:12:34;5.28;;;2.70;;
35326;SDS011;21436;52.348;20.928;2023-04-06T08:15:02;4.63;;;2.63;;
35326;SDS011;21436;52.348;20.928;2023-04-06T08:17:31;4.55;;;3.13;;
35326;SDS011;21436;52.348;20.928;2023-04-06T08:20:01;6.65;;;2.55;;
35326;SDS011;21436;52.348;20.928;2023-04-06T08:22:31;6.88;;;3.60;;
35326;SDS011;21436;52.348;20.928;2023-04-06T08:24:59;11.43;;;3.03;;
35326;SDS011;21436;52.348;20.928;2023-04-06T08:27:27;8.15;;;3.80;;
35326;SDS011;21436;52.348;20.928;2023-04-06T08:29:55;3.17;;;2.33;;
35326;SDS011;21436;52.348;20.928;2023-04-06T08:32:24;8.00;;;2.67;;
35326;SDS011;21436;52.348;20.928;2023-04-06T08:34:53;6.72;;;2.95;;
35326;SDS011;21436;52.348;20.928;2023-04-06T08:37:22;6.50;;;3.55;;
35326;SDS011;21436;52.348;20.928;2023-04-06T08:39:50;6.10;;;3.63;;
35326;SDS011;21436;52.348;20.928;2023-04-06T08:42:20;6.15;;;3.40;;
35326;SDS011;21436;52.348;20.928;2023-04-06T08:44:49;8.65;;;3.83;;
35326;SDS011;21436;52.348;20.928;2023-04-06T08:47:19;8.07;;;4.15;;
35326;SDS011;21436;52.348;20.928;2023-04-06T08:49:51;5.50;;;2.92;;
35326;SDS011;21436;52.348;20.928;2023-04-06T08:52:20;7.07;;;3.83;;
35326;SDS011;21436;52.348;20.928;2023-04-06T08:54:48;7.78;;;3.53;;
35326;SDS011;21436;52.348;20.928;2023-04-06T08:57:16;7.47;;;3.85;;
35326;SDS011;21436;52.348;20.928;2023-04-06T08:59:45;10.25;;;3.85;;
35326;SDS011;21436;52.348;20.928;2023-04-06T09:02:15;7.72;;;4.10;;
35326;SDS011;21436;52.348;20.928;2023-04-06T09:04:47;11.10;;;4.15;;
35326;SDS011;21436;52.348;20.928;2023-04-06T09:07:17;7.35;;;3.90;;
35326;SDS011;21436;52.348;20.928;2023-04-06T09:09:45;9.40;;;4.90;;
35326;SDS011;21436;52.348;20.928;2023-04-06T09:12:26;7.75;;;3.20;;
35326;SDS011;21436;52.348;20.928;2023-04-06T09:14:55;8.57;;;3.42;;
35326;SDS011;21436;52.348;20.928;2023-04-06T09:17:25;8.15;;;3.95;;
35326;SDS011;21436;52.348;20.928;2023-04-06T09:19:53;7.95;;;3.92;;
35326;SDS011;21436;52.348;20.928;2023-04-06T09:22:23;5.28;;;2.67;;
35326;SDS011;21436;52.348;20.928;2023-04-06T09:24:56;7.65;;;3.92;;
35326;SDS011;21436;52.348;20.928;2023-04-06T09:27:35;12.57;;;4.32;;
35326;SDS011;21436;52.348;20.928;2023-04-06T09:30:10;9.40;;;3.55;;
35326;SDS011;21436;52.348;20.928;2023-04-06T09:32:45;11.10;;;4.63;;
35326;SDS011;21436;52.348;20.928;2023-04-06T09:35:17;11.50;;;4.38;;
35326;SDS011;21436;52.348;20.928;2023-04-06T09:37:48;9.40;;;3.85;;
35326;SDS011;21436;52.348;20.928;2023-04-06T09:40:19;6.63;;;3.60;;
35326;SDS011;21436;52.348;20.928;2023-04-06T09:42:49;9.55;;;4.03;;
35326;SDS011;21436;52.348;20.928;2023-04-06T09:45:19;10.13;;;4.63;;
35326;SDS011;21436;52.348;20.928;2023-04-06T09:47:49;11.60;;;4.05;;
35326;SDS011;21436;52.348;20.928;2023-04-06T09:50:19;7.35;;;3.25;;
35326;SDS011;21436;52.348;20.928;2023-04-06T09:52:50;8.00;;;3.50;;
35326;SDS011;21436;52.348;20.928;2023-04-06T09:55:52;15.68;;;4.35;;
35326;SDS011;21436;52.348;20.928;2023-04-06T09:58:14;10.02;;;4.00;;
35326;SDS011;21436;52.348;20.928;2023-04-06T10:03:23;8.02;;;3.80;;
35326;SDS011;21436;52.348;20.928;2023-04-06T10:05:57;9.80;;;3.75;;
35326;SDS011;21436;52.348;20.928;2023-04-06T10:08:28;6.72;;;3.78;;
35326;SDS011;21436;52.348;20.928;2023-04-06T10:10:59;4.45;;;2.30;;
35326;SDS011;21436;52.348;20.928;2023-04-06T10:13:28;8.82;;;4.18;;
35326;SDS011;21436;52.348;20.928;2023-04-06T10:15:56;9.38;;;4.93;;
35326;SDS011;21436;52.348;20.928;2023-04-06T10:18:25;6.55;;;3.47;;
35326;SDS011;21436;52.348;20.928;2023-04-06T10:21:00;6.82;;;4.20;;
35326;SDS011;21436;52.348;20.928;2023-04-06T10:23:33;7.30;;;4.03;;
35326;SDS011;21436;52.348;20.928;2023-04-06T10:26:03;7.85;;;3.53;;
35326;SDS011;21436;52.348;20.928;2023-04-06T10:28:32;7.10;;;2.90;;
35326;SDS011;21436;52.348;20.928;2023-04-06T10:31:05;7.03;;;3.90;;
35326;SDS011;21436;52.348;20.928;2023-04-06T10:33:33;8.65;;;4.13;;
35326;SDS011;21436;52.348;20.928;2023-04-06T10:36:14;10.57;;;4.72;;
35326;SDS011;21436;52.348;20.928;2023-04-06T10:38:53;10.77;;;4.72;;
35326;SDS011;21436;52.348;20.928;2023-04-06T10:44:17;11.15;;;4.75;;
35326;SDS011;21436;52.348;20.928;2023-04-06T10:47:00;8.95;;;4.68;;
35326;SDS011;21436;52.348;20.928;2023-04-06T10:49:28;9.75;;;5.30;;
35326;SDS011;21436;52.348;20.928;2023-04-06T10:51:57;10.82;;;5.47;;
35326;SDS011;21436;52.348;20.928;2023-04-06T10:54:26;11.48;;;5.90;;
35326;SDS011;21436;52.348;20.928;2023-04-06T10:56:54;8.20;;;5.32;;
35326;SDS011;21436;52.348;20.928;2023-04-06T10:59:24;9.60;;;5.70;;
35326;SDS011;21436;52.348;20.928;2023-04-06T11:01:52;15.50;;;5.70;;
35326;SDS011;21436;52.348;20.928;2023-04-06T11:04:24;7.20;;;4.25;;
35326;SDS011;21436;52.348;20.928;2023-04-06T11:06:52;11.85;;;6.15;;
35326;SDS011;21436;52.348;20.928;2023-04-06T11:09:23;11.57;;;6.18;;
35326;SDS011;21436;52.348;20.928;2023-04-06T11:11:55;9.77;;;5.55;;
35326;SDS011;21436;52.348;20.928;2023-04-06T11:14:24;10.45;;;5.30;;
35326;SDS011;21436;52.348;20.928;2023-04-06T11:16:54;10.98;;;5.35;;
35326;SDS011;21436;52.348;20.928;2023-04-06T11:19:23;8.05;;;4.95;;
35326;SDS011;21436;52.348;20.928;2023-04-06T11:21:50;10.38;;;5.60;;
35326;SDS011;21436;52.348;20.928;2023-04-06T11:24:20;10.95;;;5.68;;
35326;SDS011;21436;52.348;20.928;2023-04-06T11:26:55;12.75;;;6.00;;
35326;SDS011;21436;52.348;20.928;2023-04-06T11:29:28;12.02;;;6.25;;
35326;SDS011;21436;52.348;20.928;2023-04-06T11:32:02;10.05;;;4.53;;
35326;SDS011;21436;52.348;20.928;2023-04-06T11:34:35;11.45;;;6.20;;
35326;SDS011;21436;52.348;20.928;2023-04-06T11:37:08;9.52;;;6.20;;
35326;SDS011;21436;52.348;20.928;2023-04-06T11:39:38;12.07;;;6.72;;
35326;SDS011;21436;52.348;20.928;2023-04-06T11:42:26;10.80;;;5.70;;
35326;SDS011;21436;52.348;20.928;2023-04-06T11:44:56;11.93;;;5.40;;
35326;SDS011;21436;52.348;20.928;2023-04-06T11:47:29;12.70;;;5.95;;
35326;SDS011;21436;52.348;20.928;2023-04-06T11:50:12;13.10;;;6.57;;
35326;SDS011;21436;52.348;20.928;2023-04-06T11:52:42;13.05;;;6.95;;
35326;SDS011;21436;52.348;20.928;2023-04-06T11:55:11;11.75;;;6.78;;
35326;SDS011;21436;52.348;20.928;2023-04-06T11:57:41;13.95;;;7.40;;
35326;SDS011;21436;52.348;20.928;2023-04-06T12:00:10;16.70;;;7.47;;
35326;SDS011;21436;52.348;20.928;2023-04-06T12:02:40;12.82;;;6.45;;
35326;SDS011;21436;52.348;20.928;2023-04-06T12:05:16;12.65;;;6.75;;
35326;SDS011;21436;52.348;20.928;2023-04-06T12:07:48;14.10;;;6.38;;
35326;SDS011;21436;52.348;20.928;2023-04-06T12:10:16;16.95;;;6.90;;
35326;SDS011;21436;52.348;20.928;2023-04-06T12:12:44;12.00;;;6.18;;
35326;SDS011;21436;52.348;20.928;2023-04-06T12:15:13;18.55;;;7.10;;
35326;SDS011;21436;52.348;20.928;2023-04-06T12:17:41;8.30;;;5.18;;
35326;SDS011;21436;52.348;20.928;2023-04-06T12:20:10;11.38;;;5.70;;
35326;SDS011;21436;52.348;20.928;2023-04-06T12:22:51;6.38;;;3.67;;
35326;SDS011;21436;52.348;20.928;2023-04-06T12:25:20;13.10;;;5.95;;
35326;SDS011;21436;52.348;20.928;2023-04-06T12:27:48;7.88;;;4.70;;
35326;SDS011;21436;52.348;20.928;2023-04-06T12:30:18;13.43;;;5.13;;
35326;SDS011;21436;52.348;20.928;2023-04-06T12:32:46;11.70;;;4.55;;
35326;SDS011;21436;52.348;20.928;2023-04-06T12:35:17;12.93;;;5.05;;
35326;SDS011;21436;52.348;20.928;2023-04-06T12:37:46;13.07;;;4.20;;
35326;SDS011;21436;52.348;20.928;2023-04-06T12:40:14;9.05;;;4.40;;
35326;SDS011;21436;52.348;20.928;2023-04-06T12:42:42;9.70;;;3.78;;
35326;SDS011;21436;52.348;20.928;2023-04-06T12:45:11;7.20;;;4.38;;
35326;SDS011;21436;52.348;20.928;2023-04-06T12:47:39;8.50;;;4.57;;
35326;SDS011;21436;52.348;20.928;2023-04-06T12:50:07;8.35;;;3.97;;
35326;SDS011;21436;52.348;20.928;2023-04-06T12:52:36;8.50;;;4.50;;
35326;SDS011;21436;52.348;20.928;2023-04-06T12:55:05;6.05;;;3.55;;
35326;SDS011;21436;52.348;20.928;2023-04-06T12:57:33;6.90;;;3.88;;
35326;SDS011;21436;52.348;20.928;2023-04-06T13:00:02;6.03;;;3.92;;
35326;SDS011;21436;52.348;20.928;2023-04-06T13:02:32;9.68;;;5.05;;
35326;SDS011;21436;52.348;20.928;2023-04-06T13:05:01;9.98;;;5.20;;
35326;SDS011;21436;52.348;20.928;2023-04-06T13:07:30;10.93;;;5.20;;
35326;SDS011;21436;52.348;20.928;2023-04-06T13:09:58;10.82;;;4.60;;
35326;SDS011;21436;52.348;20.928;2023-04-06T13:12:26;8.52;;;4.50;;
35326;SDS011;21436;52.348;20.928;2023-04-06T13:14:55;8.73;;;3.67;;
35326;SDS011;21436;52.348;20.928;2023-04-06T13:17:23;9.68;;;5.30;;
35326;SDS011;21436;52.348;20.928;2023-04-06T13:19:51;11.93;;;5.00;;
35326;SDS011;21436;52.348;20.928;2023-04-06T13:22:19;10.32;;;3.35;;
35326;SDS011;21436;52.348;20.928;2023-04-06T13:24:48;8.30;;;4.60;;
35326;SDS011;21436;52.348;20.928;2023-04-06T13:27:15;11.05;;;4.35;;
35326;SDS011;21436;52.348;20.928;2023-04-06T13:29:43;7.32;;;3.75;;
35326;SDS011;21436;52.348;20.928;2023-04-06T13:32:11;11.23;;;4.93;;
35326;SDS011;21436;52.348;20.928;2023-04-06T13:34:40;9.40;;;4.65;;
35326;SDS011;21436;52.348;20.928;2023-04-06T13:37:12;9.52;;;5.18;;
35326;SDS011;21436;52.348;20.928;2023-04-06T13:39:41;10.23;;;5.00;;
35326;SDS011;21436;52.348;20.928;2023-04-06T13:42:09;11.75;;;4.75;;
35326;SDS011;21436;52.348;20.928;2023-04-06T13:44:37;14.13;;;5.43;;
35326;SDS011;21436;52.348;20.928;2023-04-06T13:47:05;10.98;;;4.50;;
35326;SDS011;21436;52.348;20.928;2023-04-06T13:49:33;9.60;;;4.97;;
35326;SDS011;21436;52.348;20.928;2023-04-06T13:52:03;12.82;;;4.90;;
35326;SDS011;21436;52.348;20.928;2023-04-06T13:54:32;8.43;;;4.68;;
35326;SDS011;21436;52.348;20.928;2023-04-06T13:57:00;10.75;;;4.97;;
35326;SDS011;21436;52.348;20.928;2023-04-06T13:59:32;12.00;;;5.18;;
35326;SDS011;21436;52.348;20.928;2023-04-06T14:02:05;9.85;;;4.57;;
35326;SDS011;21436;52.348;20.928;2023-04-06T14:04:35;13.63;;;6.35;;
35326;SDS011;21436;52.348;20.928;2023-04-06T14:07:04;7.32;;;4.07;;
35326;SDS011;21436;52.348;20.928;2023-04-06T14:09:35;8.00;;;4.82;;
35326;SDS011;21436;52.348;20.928;2023-04-06T14:12:03;8.85;;;5.50;;
35326;SDS011;21436;52.348;20.928;2023-04-06T14:14:32;15.57;;;5.78;;
35326;SDS011;21436;52.348;20.928;2023-04-06T14:17:00;9.73;;;5.40;;
35326;SDS011;21436;52.348;20.928;2023-04-06T14:19:29;9.07;;;5.75;;
35326;SDS011;21436;52.348;20.928;2023-04-06T14:21:58;8.82;;;4.85;;
35326;SDS011;21436;52.348;20.928;2023-04-06T14:24:27;6.72;;;3.35;;
35326;SDS011;21436;52.348;20.928;2023-04-06T14:26:55;9.77;;;4.10;;
35326;SDS011;21436;52.348;20.928;2023-04-06T14:29:24;11.32;;;5.53;;
35326;SDS011;21436;52.348;20.928;2023-04-06T14:31:52;16.05;;;6.53;;
35326;SDS011;21436;52.348;20.928;2023-04-06T14:34:20;15.38;;;7.03;;
35326;SDS011;21436;52.348;20.928;2023-04-06T14:36:48;15.27;;;6.20;;
35326;SDS011;21436;52.348;20.928;2023-04-06T14:39:17;14.48;;;6.65;;
35326;SDS011;21436;52.348;20.928;2023-04-06T14:41:45;12.98;;;5.13;;
35326;SDS011;21436;52.348;20.928;2023-04-06T14:44:17;12.15;;;6.35;;
35326;SDS011;21436;52.348;20.928;2023-04-06T14:46:45;9.55;;;5.05;;
35326;SDS011;21436;52.348;20.928;2023-04-06T14:49:14;9.57;;;5.65;;
35326;SDS011;21436;52.348;20.928;2023-04-06T14:51:42;12.10;;;5.38;;
35326;SDS011;21436;52.348;20.928;2023-04-06T14:54:10;12.48;;;6.15;;
35326;SDS011;21436;52.348;20.928;2023-04-06T14:56:38;10.88;;;5.18;;